Time;durP1;ratioP1;P1;durP2;ratioP2;P2;SDS_P1;SDS_P2;PMS_P1;PMS_P2;Temp;Humidity;BMP_temperature;BMP_pressure;BME280_temperature;BME280_humidity;BME280_pressure;Samples;Min_cycle;Max_cycle;Signal;HPM_P1;HPM_P2
2021/05/10 00:00:16;;;;;;;;;19.50;19.50;;;;;8.79;67.11;102178.41;4916241;29;12549;-74
2021/05/10 00:03:12;;;;;;;;;16.00;16.00;;;;;8.72;67.26;102167.69;4917517;29;11646;-74
2021/05/10 00:06:08;;;;;;;;;15.25;15.25;;;;;8.72;66.96;102178.72;4915973;29;11625;-74
2021/05/10 00:09:05;;;;;;;;;16.50;15.25;;;;;8.73;66.90;102177.59;4918229;29;11642;-74
2021/05/10 00:12:00;;;;;;;;;17.50;17.50;;;;;8.86;67.75;102171.47;4916089;29;11645;-74
2021/05/10 00:14:56;;;;;;;;;15.25;15.25;;;;;8.72;67.63;102166.84;4914528;29;11652;-74
2021/05/10 00:17:53;;;;;;;;;15.75;15.50;;;;;8.64;67.51;102168.28;4915830;29;11626;-74
2021/05/10 00:20:50;;;;;;;;;15.00;15.00;;;;;8.66;67.13;102173.50;4914422;29;11652;-74
2021/05/10 00:23:45;;;;;;;;;15.75;15.75;;;;;8.49;68.03;102166.38;4915588;29;11644;-73
2021/05/10 00:26:41;;;;;;;;;18.25;18.25;;;;;8.40;68.33;102176.34;4915718;29;11654;-74
2021/05/10 00:29:36;;;;;;;;;14.75;14.75;;;;;8.35;68.59;102170.84;4897002;29;11688;-74
2021/05/10 00:32:32;;;;;;;;;15.25;15.25;;;;;8.30;68.94;102165.31;4897077;29;11778;-74
2021/05/10 00:35:28;;;;;;;;;11.25;11.25;;;;;8.25;69.85;102166.16;4896948;29;11645;-74
2021/05/10 00:38:23;;;;;;;;;11.75;11.25;;;;;8.26;69.84;102165.03;4898359;29;11647;-74
2021/05/10 00:41:19;;;;;;;;;18.25;17.25;;;;;8.20;70.96;102168.09;4900861;29;11664;-73
2021/05/10 00:44:15;;;;;;;;;11.00;11.00;;;;;8.12;69.63;102166.72;4900924;29;11665;-74
2021/05/10 00:47:10;;;;;;;;;15.50;15.50;;;;;8.23;68.62;102167.56;4900426;29;11764;-74
2021/05/10 00:50:08;;;;;;;;;12.25;11.25;;;;;8.09;69.43;102161.78;4901947;29;11669;-74
2021/05/10 00:53:04;;;;;;;;;14.75;13.75;;;;;7.99;69.80;102162.63;4901955;29;11740;-74
2021/05/10 00:55:59;;;;;;;;;12.00;12.00;;;;;8.05;70.08;102161.53;4900441;29;11765;-74
2021/05/10 00:58:55;;;;;;;;;22.75;18.75;;;;;7.93;70.13;102157.41;4900466;29;11666;-74
2021/05/10 01:01:52;;;;;;;;;17.25;17.25;;;;;7.97;69.83;102173.09;4900412;29;11813;-74
2021/05/10 01:04:48;;;;;;;;;15.75;15.75;;;;;7.85;70.72;102167.06;4901734;29;11664;-73
2021/05/10 01:07:44;;;;;;;;;17.00;15.25;;;;;7.74;70.70;102168.16;4901243;29;11650;-73
2021/05/10 01:10:39;;;;;;;;;16.25;16.25;;;;;7.93;70.32;102166.50;4918980;29;11695;-74
2021/05/10 01:13:35;;;;;;;;;16.75;16.75;;;;;8.01;69.33;102163.19;4918997;29;11687;-73
2021/05/10 01:16:30;;;;;;;;;18.75;18.75;;;;;7.97;69.50;102172.25;4918857;29;12465;-74
2021/05/10 01:19:28;;;;;;;;;14.00;14.00;;;;;7.91;69.61;102178.91;4918907;29;11665;-74
2021/05/10 01:22:32;;;;;;;;;15.25;15.25;;;;;7.83;71.07;102180.28;4918800;29;11674;-74
2021/05/10 01:25:29;;;;;;;;;15.75;15.75;;;;;7.86;70.74;102181.66;4918375;29;11666;-74
2021/05/10 01:28:25;;;;;;;;;19.75;19.50;;;;;7.78;70.57;102183.03;4918705;29;11713;-74
2021/05/10 01:31:21;;;;;;;;;19.00;17.50;;;;;7.64;70.25;102182.75;4918727;29;11762;-74
2021/05/10 01:34:16;;;;;;;;;18.75;18.75;;;;;7.62;70.62;102184.13;4920076;29;11663;-74
2021/05/10 01:37:12;;;;;;;;;21.00;17.00;;;;;7.72;69.67;102186.88;4918572;29;11640;-74
2021/05/10 01:40:09;;;;;;;;;21.25;20.00;;;;;7.79;69.78;102185.50;4918658;29;11629;-74
2021/05/10 01:43:05;;;;;;;;;15.00;15.00;;;;;7.67;70.02;102192.41;4919727;29;11652;-74
2021/05/10 01:46:00;;;;;;;;;14.25;14.25;;;;;7.50;71.70;102193.47;4918333;29;11674;-73
2021/05/10 01:48:56;;;;;;;;;12.75;12.00;;;;;7.58;71.30;102194.84;4919245;29;11658;-73
2021/05/10 01:51:52;;;;;;;;;14.50;14.50;;;;;7.53;70.83;102192.94;4940563;29;12468;-74
2021/05/10 01:54:52;;;;;;;;;23.25;23.25;;;;;7.47;70.63;102193.19;4918216;29;11672;-73
2021/05/10 01:57:49;;;;;;;;;20.00;20.00;;;;;7.52;70.92;102191.28;4918160;29;11656;-73
2021/05/10 02:00:48;;;;;;;;;21.75;21.75;;;;;7.44;71.21;102196.50;4918223;29;11792;-74
2021/05/10 02:03:43;;;;;;;;;25.00;24.25;;;;;7.46;70.73;102195.13;4918189;29;11648;-73
2021/05/10 02:06:39;;;;;;;;;26.25;26.25;;;;;7.44;70.53;102194.59;4917915;29;11694;-74
2021/05/10 02:09:34;;;;;;;;;28.00;26.75;;;;;7.58;70.08;102196.78;4918135;29;12495;-74
2021/05/10 02:12:30;;;;;;;;;29.25;29.00;;;;;7.40;71.14;102189.88;4917837;29;12516;-73
2021/05/10 02:15:28;;;;;;;;;30.00;30.00;;;;;7.40;71.19;102198.97;4917866;29;11663;-74
2021/05/10 02:18:30;;;;;;;;;29.00;27.75;;;;;7.45;70.28;102196.25;4918214;29;11656;-73
2021/05/10 02:21:30;;;;;;;;;31.50;31.50;;;;;7.39;70.52;102200.06;4917883;29;12452;-74
2021/05/10 02:24:25;;;;;;;;;33.50;33.50;;;;;7.44;70.22;102208.34;4917724;29;11717;-73
2021/05/10 02:27:21;;;;;;;;;36.50;36.50;;;;;7.46;69.79;102219.91;4918516;29;11780;-73
2021/05/10 02:30:21;;;;;;;;;27.00;25.50;;;;;7.33;70.50;102223.19;4918657;29;11705;-73
2021/05/10 02:33:19;;;;;;;;;23.00;23.00;;;;;7.33;70.50;102225.09;4908030;29;11634;-73
2021/05/10 02:36:15;;;;;;;;;26.75;26.50;;;;;7.39;70.03;102226.78;4916211;29;12390;-73
2021/05/10 02:39:10;;;;;;;;;27.00;25.25;;;;;7.46;69.73;102224.59;4897851;29;11593;-73
2021/05/10 02:42:06;;;;;;;;;20.50;20.50;;;;;7.58;69.53;102233.41;4897800;29;11615;-73
2021/05/10 02:45:04;;;;;;;;;18.25;18.00;;;;;7.51;69.08;102232.84;4897682;29;11619;-73
2021/05/10 02:47:59;;;;;;;;;26.75;26.75;;;;;7.60;69.09;102236.72;4897576;29;11633;-73
2021/05/10 02:50:55;;;;;;;;;27.75;27.50;;;;;7.57;69.54;102240.00;4879733;29;11606;-74
2021/05/10 02:53:50;;;;;;;;;36.50;31.75;;;;;7.64;69.58;102237.00;4880956;29;11611;-73
2021/05/10 02:56:46;;;;;;;;;37.00;33.75;;;;;7.66;69.93;102237.53;4897271;29;11703;-73
2021/05/10 02:59:43;;;;;;;;;26.75;25.50;;;;;7.54;70.43;102232.31;4885682;29;11619;-74
2021/05/10 03:02:39;;;;;;;;;32.25;32.25;;;;;7.66;70.48;102245.81;4897461;29;12410;-73
2021/05/10 03:05:35;;;;;;;;;27.00;27.00;;;;;7.68;69.90;102244.44;4884859;29;11653;-73
2021/05/10 03:08:30;;;;;;;;;29.75;29.75;;;;;7.68;70.19;102244.44;4897041;29;12418;-74
2021/05/10 03:11:26;;;;;;;;;31.25;31.25;;;;;7.83;69.83;102251.09;4897204;29;11610;-74
2021/05/10 03:14:22;;;;;;;;;30.75;30.75;;;;;7.94;69.40;102248.03;4897208;29;11609;-73
2021/05/10 03:17:17;;;;;;;;;35.25;32.00;;;;;8.06;69.41;102256.03;4897162;29;11644;-74
2021/05/10 03:20:16;;;;;;;;;33.25;29.50;;;;;7.99;69.72;102255.50;4897306;29;12477;-73
2021/05/10 03:23:11;;;;;;;;;38.25;33.25;;;;;8.25;69.29;102262.63;4896987;29;11600;-74
2021/05/10 03:26:07;;;;;;;;;28.50;26.00;;;;;8.23;69.25;102259.34;4898594;29;11705;-73
2021/05/10 03:29:04;;;;;;;;;23.50;23.50;;;;;8.35;68.71;102264.56;4915920;29;11601;-74
2021/05/10 03:32:00;;;;;;;;;25.75;25.50;;;;;8.34;69.06;102263.72;4916044;29;11582;-73
2021/05/10 03:34:55;;;;;;;;;30.25;29.75;;;;;8.51;68.96;102269.00;4915763;29;11735;-74
2021/05/10 03:37:51;;;;;;;;;21.75;21.75;;;;;8.67;68.30;102269.78;4915875;29;11626;-74
2021/05/10 03:40:47;;;;;;;;;26.50;25.75;;;;;8.80;68.72;102271.94;4915812;29;11575;-74
2021/05/10 03:43:42;;;;;;;;;18.25;16.50;;;;;8.88;68.55;102268.59;4910367;29;11611;-74
2021/05/10 03:46:38;;;;;;;;;26.50;26.50;;;;;9.09;67.74;102280.38;4905470;29;11629;-74
2021/05/10 03:49:34;;;;;;;;;30.00;28.75;;;;;9.35;65.96;102272.81;4915714;29;11695;-74
2021/05/10 03:52:29;;;;;;;;;31.75;31.25;;;;;9.46;65.39;102271.66;4907032;29;12378;-74
2021/05/10 03:55:25;;;;;;;;;41.75;33.50;;;;;9.66;64.52;102264.34;4896556;29;12493;-74
2021/05/10 03:58:21;;;;;;;;;40.50;37.00;;;;;9.85;63.95;102270.84;4896577;29;11616;-74
2021/05/10 04:01:16;;;;;;;;;56.25;42.75;;;;;10.06;62.82;102276.22;4896656;29;11593;-74
2021/05/10 04:07:23;;;;;;;;;55.75;45.25;;;;;10.28;61.53;102277.44;4905354;29;11600;-74
2021/05/10 04:10:39;;;;;;;;;58.25;48.50;;;;;10.43;61.16;102281.19;4915485;29;11774;-74
2021/05/10 04:13:55;;;;;;;;;48.75;41.50;;;;;10.59;61.24;102282.69;4908981;29;11593;-74
2021/05/10 04:16:51;;;;;;;;;55.75;43.00;;;;;10.79;59.62;102285.22;4921366;29;11621;-74
2021/05/10 04:19:46;;;;;;;;;46.00;37.25;;;;;10.90;50.53;102287.88;4913641;29;11694;-73
2021/05/10 04:22:42;;;;;;;;;28.25;23.75;;;;;11.21;49.48;102285.56;4902522;29;11743;-73
2021/05/10 04:25:38;;;;;;;;;29.75;27.25;;;;;11.45;47.42;102288.31;4890014;29;11556;-74
2021/05/10 04:28:36;;;;;;;;;23.75;21.50;;;;;11.72;46.53;102285.69;4902492;29;11640;-74
2021/05/10 04:31:32;;;;;;;;;16.00;11.75;;;;;11.90;46.53;102287.66;4902663;29;12445;-74
2021/05/10 04:34:27;;;;;;;;;18.00;18.00;;;;;11.98;44.56;102282.56;4902657;29;11450;-73
2021/05/10 04:37:24;;;;;;;;;17.00;17.00;;;;;12.08;43.89;102282.38;4902498;29;11310;-74
2021/05/10 04:40:19;;;;;;;;;17.00;16.75;;;;;12.18;44.15;102290.53;4902522;29;11199;-74
2021/05/10 04:43:15;;;;;;;;;28.00;28.00;;;;;12.41;44.14;102283.19;4902460;29;11810;-74
2021/05/10 04:46:11;;;;;;;;;17.75;17.75;;;;;12.61;43.61;102284.78;4902187;29;11348;-74
2021/05/10 04:49:06;;;;;;;;;17.25;17.25;;;;;12.66;43.65;102290.25;4902454;29;11155;-74
2021/05/10 04:52:02;;;;;;;;;41.75;36.00;;;;;12.98;45.39;102283.81;4902391;29;11207;-74
2021/05/10 04:54:57;;;;;;;;;55.25;42.50;;;;;13.17;42.85;102278.13;4889664;29;11648;-74
2021/05/10 04:57:53;;;;;;;;;71.25;55.25;;;;;13.22;41.11;102284.44;4902148;29;11689;-74
2021/05/10 05:00:48;;;;;;;;;54.25;41.25;;;;;13.28;39.73;102287.94;4902263;29;11692;-74
2021/05/10 05:03:44;;;;;;;;;56.25;44.00;;;;;13.40;41.01;102279.06;4890316;29;12197;-74
2021/05/10 05:06:39;;;;;;;;;59.75;47.75;;;;;13.57;39.48;102277.28;4901714;29;11437;-74
2021/05/10 05:09:35;;;;;;;;;90.75;74.25;;;;;13.70;41.06;102280.31;4901404;29;11655;-73
2021/05/10 05:12:30;;;;;;;;;52.25;42.50;;;;;13.77;38.23;102273.19;4900552;29;11827;-74
2021/05/10 05:15:26;;;;;;;;;75.00;53.25;;;;;14.03;39.02;102267.84;4920258;29;12053;-74
2021/05/10 05:18:22;;;;;;;;;69.25;52.50;;;;;14.25;38.79;102263.41;4921082;29;11628;-74
2021/05/10 05:21:17;;;;;;;;;76.75;57.50;;;;;14.39;41.09;102272.50;4907897;29;11730;-78
2021/05/10 05:24:13;;;;;;;;;60.75;48.75;;;;;14.62;42.17;102267.72;4890402;29;11711;-80
2021/05/10 05:26:40;;;;;;;;;58.00;44.75;;;;;14.42;38.53;102269.09;4886533;29;11754;-80
2021/05/10 05:29:23;;;;;;;;;57.25;43.50;;;;;14.49;35.46;102269.47;4900721;29;11650;-80
2021/05/10 05:31:54;;;;;;;;;57.75;48.25;;;;;14.45;37.97;102271.22;4900997;29;11969;-79
2021/05/10 05:34:33;;;;;;;;;52.25;43.00;;;;;14.44;35.84;102273.19;4884470;29;11641;-80
2021/05/10 05:37:06;;;;;;;;;62.00;49.50;;;;;14.63;35.22;102264.63;4901108;29;11078;-80
2021/05/10 05:39:34;;;;;;;;;50.25;42.50;;;;;14.67;36.83;102274.00;4900792;29;11779;-79
2021/05/10 05:42:30;;;;;;;;;52.75;41.75;;;;;14.83;36.46;102271.59;4901000;29;10825;-78
2021/05/10 05:45:26;;;;;;;;;44.50;38.25;;;;;14.62;36.12;102265.75;4886554;29;10973;-79
2021/05/10 05:47:54;;;;;;;;;43.75;34.25;;;;;14.69;35.22;102266.13;4906618;29;10724;-78
2021/05/10 05:50:49;;;;;;;;;41.75;35.75;;;;;14.87;34.72;102257.84;4879470;29;10730;-79
2021/05/10 05:53:45;;;;;;;;;43.50;38.75;;;;;14.90;32.74;102260.81;4887578;29;10557;-80
2021/05/10 05:56:41;;;;;;;;;37.00;34.00;;;;;15.30;34.72;102257.97;4900934;29;10999;-78
2021/05/10 05:59:36;;;;;;;;;56.50;47.00;;;;;15.30;35.81;102247.63;4916005;29;10480;-79
2021/05/10 06:02:32;;;;;;;;;59.00;45.50;;;;;15.39;33.23;102250.44;4888281;29;11019;-80
2021/05/10 06:05:27;;;;;;;;;45.00;35.50;;;;;15.67;33.87;102250.19;4902869;29;10829;-79
2021/05/10 06:08:23;;;;;;;;;40.25;35.50;;;;;15.85;35.00;102238.66;4904556;29;10543;-78
2021/05/10 06:11:07;;;;;;;;;27.75;25.50;;;;;15.72;34.52;102244.41;4896288;29;10155;-79
2021/05/10 06:14:03;;;;;;;;;22.75;22.75;;;;;16.07;35.49;102242.44;4917347;29;10049;-79
2021/05/10 06:16:58;;;;;;;;;22.75;22.75;;;;;16.12;32.82;102240.28;4897280;29;10388;-79
2021/05/10 06:19:54;;;;;;;;;15.33;15.33;;;;;16.11;32.52;102232.25;4897908;29;9525;-74
2021/05/10 06:22:50;;;;;;;;;15.00;15.00;;;;;16.20;32.04;102221.06;4897945;29;9422;-73
2021/05/10 06:25:46;;;;;;;;;11.00;10.00;;;;;16.25;29.92;102227.28;4898023;29;9446;-72
2021/05/10 06:28:42;;;;;;;;;23.67;22.00;;;;;16.35;35.93;102226.13;4898153;29;9314;-73
2021/05/10 06:31:24;;;;;;;;;14.67;14.00;;;;;16.52;32.94;102214.06;4898127;29;9224;-73
2021/05/10 06:34:02;;;;;;;;;17.33;16.00;;;;;15.95;30.45;102214.38;4898400;29;9037;-75
2021/05/10 06:36:38;;;;;;;;;13.00;12.00;;;;;16.53;32.18;102215.69;4910978;29;9515;-73
2021/05/10 06:39:33;;;;;;;;;13.75;13.75;;;;;16.90;32.03;102214.09;4903463;29;9116;-73
2021/05/10 06:42:29;;;;;;;;;7.67;7.67;;;;;16.61;28.83;102209.25;4888659;29;8873;-73
2021/05/10 06:44:58;;;;;;;;;19.00;17.33;;;;;16.64;32.31;102215.00;4893163;29;8949;-73
2021/05/10 06:47:51;;;;;;;;;8.75;8.75;;;;;16.31;31.08;102206.41;4900510;29;9061;-73
2021/05/10 06:50:46;;;;;;;;;14.00;12.75;;;;;16.88;40.99;102202.44;4906086;29;8869;-73
2021/05/10 06:56:57;;;;;;;;;9.75;9.75;;;;;16.97;30.03;102196.78;4892811;29;9772;-74
2021/05/10 06:59:52;;;;;;;;;6.00;6.00;;;;;16.72;28.21;102204.97;4896514;29;8889;-76
2021/05/10 07:02:49;;;;;;;;;5.50;5.50;;;;;16.95;29.44;102199.94;4897415;29;8903;-73
2021/05/10 07:05:45;;;;;;;;;10.00;10.00;;;;;17.33;36.92;102202.63;4895094;29;9417;-73
2021/05/10 07:08:15;;;;;;;;;5.25;5.25;;;;;17.51;30.04;102198.53;4898309;29;8896;-75
2021/05/10 07:11:10;;;;;;;;;4.75;4.75;;;;;17.32;28.74;102188.97;4888146;29;8865;-76
2021/05/10 07:14:06;;;;;;;;;6.25;5.00;;;;;16.79;26.82;102196.91;4898615;29;8853;-76
2021/05/10 07:17:02;;;;;;;;;1.50;1.50;;;;;16.81;26.16;102190.97;4895831;29;8841;-75
2021/05/10 07:19:57;;;;;;;;;5.75;5.75;;;;;16.87;29.44;102192.41;4909834;29;9728;-76
2021/05/10 07:22:55;;;;;;;;;11.50;11.50;;;;;17.09;29.37;102171.69;4897128;29;8956;-74
2021/05/10 07:25:51;;;;;;;;;7.00;7.00;;;;;16.94;27.51;102181.50;4897801;29;8849;-75
2021/05/10 07:28:46;;;;;;;;;12.25;12.25;;;;;17.17;29.65;102184.78;4900046;29;8879;-75
2021/05/10 07:31:42;;;;;;;;;8.00;8.00;;;;;17.50;29.93;102180.13;4907244;29;8854;-74
2021/05/10 07:34:29;;;;;;;;;6.75;6.75;;;;;17.43;26.79;102176.22;4902709;29;8957;-75
2021/05/10 07:37:18;;;;;;;;;11.25;10.50;;;;;18.03;29.00;102161.69;4903931;29;8861;-75
2021/05/10 07:40:19;;;;;;;;;7.25;7.25;;;;;17.84;27.72;102171.75;4915640;29;9593;-79
2021/05/10 07:42:46;;;;;;;;;14.50;13.00;;;;;17.76;27.71;102160.31;4900211;29;8963;-81
2021/05/10 07:45:42;;;;;;;;;4.00;4.00;;;;;17.44;26.38;102147.91;4903728;29;8873;-79
2021/05/10 07:48:39;;;;;;;;;15.00;14.33;;;;;17.88;30.49;102167.13;4892338;29;8918;-79
2021/05/10 07:51:34;;;;;;;;;9.75;9.75;;;;;17.56;27.64;102169.53;4884070;29;8921;-79
2021/05/10 07:54:30;;;;;;;;;3.00;3.00;;;;;18.20;27.26;102162.66;4910230;29;8883;-80
2021/05/10 07:57:25;;;;;;;;;4.25;4.25;;;;;17.80;26.53;102159.63;4915045;29;8875;-80
2021/05/10 08:00:37;;;;;;;;;4.75;4.75;;;;;17.98;26.55;102159.09;4904443;29;8876;-81
2021/05/10 08:03:34;;;;;;;;;6.00;6.00;;;;;18.40;26.75;102144.09;4897264;29;8873;-80
2021/05/10 08:06:06;;;;;;;;;8.75;8.75;;;;;17.88;28.41;102145.56;4892610;29;8863;-81
2021/05/10 08:09:05;;;;;;;;;13.25;13.25;;;;;18.51;29.66;102148.91;4914586;29;8918;-80
2021/05/10 08:12:00;;;;;;;;;10.25;10.25;;;;;18.91;32.16;102145.41;4902806;29;8886;-80
2021/05/10 08:15:04;;;;;;;;;13.50;12.50;;;;;18.91;27.30;102147.41;4902894;29;9605;-72
2021/05/10 08:17:59;;;;;;;;;13.25;12.25;;;;;18.86;26.55;102137.22;4910031;29;8899;-71
2021/05/10 08:20:57;;;;;;;;;4.00;4.00;;;;;19.03;25.17;102138.97;4891466;29;8877;-74
2021/05/10 08:23:25;;;;;;;;;7.75;6.75;;;;;19.16;25.53;102132.97;4880399;29;8873;-73
2021/05/10 08:26:14;;;;;;;;;4.00;4.00;;;;;19.02;25.23;102129.75;4881090;29;8981;-73
2021/05/10 08:29:10;;;;;;;;;7.00;7.00;;;;;18.97;24.91;102131.97;4895916;29;8919;-73
2021/05/10 08:32:00;;;;;;;;;8.75;8.75;;;;;19.25;26.01;102109.59;4898164;29;8915;-73
2021/05/10 08:34:56;;;;;;;;;8.75;8.75;;;;;19.09;26.35;102107.53;4895619;29;8884;-74
2021/05/10 08:37:52;;;;;;;;;7.50;7.50;;;;;18.73;25.23;102111.22;4914318;29;8958;-72
2021/05/10 08:40:19;;;;;;;;;3.00;3.00;;;;;19.03;25.58;102103.34;4915147;29;8894;-72
2021/05/10 08:43:23;;;;;;;;;5.00;5.00;;;;;19.63;27.14;102097.84;4914646;29;8879;-73
2021/05/10 08:46:08;;;;;;;;;1.00;1.00;;;;;19.30;25.32;102106.50;4914749;29;8871;-73
2021/05/10 08:48:56;;;;;;;;;4.25;4.25;;;;;19.01;25.20;102104.84;4897029;29;8873;-73
2021/05/10 08:51:24;;;;;;;;;5.50;5.50;;;;;19.06;25.74;102110.22;4897409;29;8887;-73
2021/05/10 08:53:57;;;;;;;;;7.25;7.25;;;;;19.55;25.78;102102.44;4902100;29;8875;-73
2021/05/10 08:56:54;;;;;;;;;6.00;6.00;;;;;19.85;24.99;102091.63;4914373;29;9723;-73
2021/05/10 08:59:50;;;;;;;;;4.25;4.25;;;;;20.34;25.42;102085.69;4916963;29;8909;-74
2021/05/10 09:02:45;;;;;;;;;3.00;3.00;;;;;20.54;24.98;102098.63;4921512;29;9609;-73
2021/05/10 09:05:48;;;;;;;;;4.00;4.00;;;;;20.45;24.15;102095.19;4915028;29;8865;-73
2021/05/10 09:08:49;;;;;;;;;5.25;5.25;;;;;20.61;24.57;102089.56;4917880;29;8871;-72
2021/05/10 09:11:18;;;;;;;;;3.25;3.25;;;;;20.30;24.59;102083.97;4919114;29;9629;-74
2021/05/10 09:14:14;;;;;;;;;7.25;7.25;;;;;20.07;25.51;102078.16;4900014;29;8884;-73
2021/05/10 09:17:10;;;;;;;;;5.75;5.75;;;;;20.03;25.09;102075.28;4900969;29;8908;-73
2021/05/10 09:20:15;;;;;;;;;6.00;6.00;;;;;20.00;25.34;102068.38;4900087;29;9002;-73
2021/05/10 09:23:04;;;;;;;;;5.75;5.75;;;;;19.81;24.92;102081.50;4910162;29;8870;-72
2021/05/10 09:25:45;;;;;;;;;4.00;4.00;;;;;20.14;24.53;102067.94;4903250;29;8863;-73
2021/05/10 09:28:18;;;;;;;;;6.25;6.25;;;;;20.40;25.13;102063.75;4917800;29;9628;-72
2021/05/10 09:31:14;;;;;;;;;11.75;11.00;;;;;19.62;24.82;102063.34;4917398;29;9609;-73
2021/05/10 09:34:14;;;;;;;;;9.50;9.50;;;;;20.16;25.46;102059.13;4918207;29;9006;-73
2021/05/10 09:37:02;;;;;;;;;8.75;8.75;;;;;19.59;25.76;102066.09;4904164;29;9615;-73
2021/05/10 09:40:03;;;;;;;;;4.00;4.00;;;;;20.35;24.80;102056.41;4899742;29;8872;-73
2021/05/10 09:43:02;;;;;;;;;5.50;5.50;;;;;20.70;24.46;102039.59;4900073;29;8944;-73
2021/05/10 09:45:33;;;;;;;;;5.00;5.00;;;;;20.77;23.94;102036.91;4899501;29;8850;-73
2021/05/10 09:48:33;;;;;;;;;7.00;7.00;;;;;21.26;24.21;102033.53;4898263;29;8916;-72
2021/05/10 09:51:29;;;;;;;;;11.75;11.75;;;;;20.75;24.11;102033.66;4903061;29;8892;-73
2021/05/10 09:54:25;;;;;;;;;10.00;10.00;;;;;20.29;23.81;102026.97;4906441;29;8861;-73
2021/05/10 09:57:21;;;;;;;;;6.25;5.75;;;;;20.41;24.82;102026.03;4886131;29;8853;-73
2021/05/10 10:00:20;;;;;;;;;0.50;0.50;;;;;21.04;23.49;102020.22;4885443;29;9000;-73
2021/05/10 10:03:23;;;;;;;;;4.50;4.50;;;;;20.71;23.82;102006.66;4881326;29;8982;-73
2021/05/10 10:06:19;;;;;;;;;11.50;11.50;;;;;20.40;24.34;102004.75;4891686;29;8928;-72
2021/05/10 10:08:49;;;;;;;;;8.75;7.00;;;;;20.83;24.71;102003.69;4899162;29;8909;-72
2021/05/10 10:11:42;;;;;;;;;4.00;4.00;;;;;20.89;23.98;102012.66;4885459;29;8896;-71
2021/05/10 10:14:10;;;;;;;;;4.25;4.25;;;;;20.65;23.72;101994.91;4898913;29;8881;-72
2021/05/10 10:17:06;;;;;;;;;6.00;6.00;;;;;20.89;23.77;101984.53;4897485;29;8857;-72
2021/05/10 14:09:54;;;;;;;;;8.25;8.25;;;;;21.48;21.38;101696.25;4912182;29;8848;-73
2021/05/10 14:48:22;;;;;;;;;17.25;16.50;;;;;19.76;23.82;101635.47;4905232;29;8823;-71
2021/05/10 14:51:21;;;;;;;;;19.50;18.50;;;;;19.54;24.63;101629.41;4916547;29;8851;-73
2021/05/10 14:54:16;;;;;;;;;11.75;11.75;;;;;19.59;24.08;101631.16;4916568;29;8859;-72
2021/05/10 14:57:12;;;;;;;;;27.00;12.25;;;;;19.57;23.72;101627.91;4916112;29;9052;-72
2021/05/10 15:00:08;;;;;;;;;7.00;7.00;;;;;19.41;23.97;101619.53;4904748;29;8925;-72
2021/05/10 15:03:04;;;;;;;;;8.25;8.25;;;;;19.43;24.09;101619.97;4897631;29;8867;-72
2021/05/10 15:06:00;;;;;;;;;13.25;12.75;;;;;19.44;24.39;101615.97;4897460;29;8857;-72
2021/05/10 15:08:56;;;;;;;;;16.00;15.50;;;;;19.49;24.87;101618.50;4878934;29;8969;-73
2021/05/10 15:11:51;;;;;;;;;22.50;21.75;;;;;19.27;24.76;101613.63;4879329;29;8954;-72
2021/05/10 15:14:41;;;;;;;;;6.25;5.75;;;;;19.28;24.73;101610.44;4871073;29;8909;-72
2021/05/10 15:17:37;;;;;;;;;25.25;23.25;;;;;19.28;24.77;101602.03;4914277;29;9677;-72
2021/05/10 15:20:07;;;;;;;;;16.75;16.00;;;;;19.15;24.33;101604.16;4917091;29;8960;-73
2021/05/10 15:23:03;;;;;;;;;13.25;12.00;;;;;19.12;24.70;101610.50;4916318;29;8863;-72
2021/05/10 15:25:58;;;;;;;;;10.50;10.50;;;;;18.98;24.33;101604.56;4915857;29;8913;-72
2021/05/10 15:28:56;;;;;;;;;14.75;14.75;;;;;19.01;24.48;101598.22;4916101;29;8839;-72
2021/05/10 15:31:51;;;;;;;;;7.50;7.50;;;;;18.82;24.63;101598.19;4916014;29;8851;-72
2021/05/10 15:34:19;;;;;;;;;5.00;5.00;;;;;18.91;24.92;101593.19;4908535;29;8874;-72
2021/05/10 15:37:15;;;;;;;;;4.00;4.00;;;;;18.69;24.51;101586.28;4908046;29;8866;-72
2021/05/10 15:40:14;;;;;;;;;4.25;4.25;;;;;19.00;24.78;101584.56;4915661;29;8890;-72
2021/05/10 15:43:09;;;;;;;;;4.75;4.75;;;;;19.12;24.80;101599.28;4906820;29;8869;-72
2021/05/10 15:46:05;;;;;;;;;11.25;10.25;;;;;18.81;24.49;101597.38;4901904;29;8869;-72
2021/05/10 15:49:00;;;;;;;;;12.00;12.00;;;;;18.84;25.25;101601.44;4896695;29;9058;-71
2021/05/10 15:51:48;;;;;;;;;10.75;10.75;;;;;18.98;25.11;101598.97;4907751;29;8867;-72
2021/05/10 15:54:17;;;;;;;;;7.00;7.00;;;;;18.87;24.87;101595.94;4900711;29;8873;-72
2021/05/10 15:57:12;;;;;;;;;6.25;6.25;;;;;18.72;25.10;101590.38;4909241;29;8878;-71
2021/05/10 16:00:09;;;;;;;;;9.25;9.25;;;;;18.90;24.95;101591.56;4912445;29;8850;-72
2021/05/10 16:03:04;;;;;;;;;14.33;14.33;;;;;18.72;25.33;101593.16;4908012;29;8865;-71
2021/05/10 16:06:00;;;;;;;;;20.00;19.50;;;;;18.62;24.96;101586.09;4905676;29;8958;-71
2021/05/10 16:08:57;;;;;;;;;20.50;20.50;;;;;18.67;24.84;101590.63;4897570;29;8988;-71
2021/05/10 16:11:52;;;;;;;;;15.00;15.00;;;;;18.58;25.42;101596.41;4899747;29;8863;-71
2021/05/10 16:14:48;;;;;;;;;9.50;9.50;;;;;18.59;25.37;101590.44;4907446;29;8991;-71
2021/05/10 16:17:44;;;;;;;;;11.00;11.00;;;;;18.62;25.10;101589.69;4898358;29;9596;-71
2021/05/10 16:20:13;;;;;;;;;5.50;5.50;;;;;18.32;25.10;101586.56;4916488;29;8879;-71
2021/05/10 16:22:51;;;;;;;;;5.25;5.25;;;;;18.35;25.26;101585.03;4910466;29;8851;-70
2021/05/10 16:25:19;;;;;;;;;7.50;7.50;;;;;18.52;25.75;101579.06;4916176;29;8851;-71
2021/05/10 16:27:56;;;;;;;;;7.25;7.25;;;;;18.39;25.21;101576.72;4888356;29;8873;-71
2021/05/10 16:30:24;;;;;;;;;14.50;14.50;;;;;18.32;25.50;101564.16;4899607;29;8878;-71
2021/05/10 16:32:54;;;;;;;;;14.25;14.25;;;;;18.34;25.69;101573.03;4900536;29;8895;-71
2021/05/10 16:35:50;;;;;;;;;4.75;4.75;;;;;18.16;26.26;101568.94;4909208;29;8847;-72
2021/05/10 16:38:17;;;;;;;;;15.00;15.00;;;;;18.10;26.02;101573.22;4899626;29;8880;-71
2021/05/10 16:40:55;;;;;;;;;11.25;11.00;;;;;18.20;26.48;101577.47;4897095;29;8865;-72
2021/05/10 16:43:37;;;;;;;;;8.25;8.25;;;;;18.22;26.30;101561.91;4883381;29;9715;-71
2021/05/10 16:46:04;;;;;;;;;5.50;5.50;;;;;18.05;26.39;101576.28;4879151;29;9707;-71
2021/05/10 16:48:32;;;;;;;;;3.75;3.75;;;;;18.31;26.32;101570.94;4895739;29;8896;-72
2021/05/10 16:51:28;;;;;;;;;2.75;2.75;;;;;18.22;26.62;101556.31;4895775;29;8865;-71
2021/05/10 16:54:02;;;;;;;;;2.75;2.75;;;;;18.19;26.66;101568.25;4893561;29;8964;-72
2021/05/10 16:56:58;;;;;;;;;10.75;10.75;;;;;18.08;26.94;101558.75;4892998;29;9591;-71
2021/05/10 16:59:53;;;;;;;;;2.00;2.00;;;;;18.05;26.63;101557.50;4894280;29;9071;-72
2021/05/10 17:02:21;;;;;;;;;2.75;2.75;;;;;18.02;27.32;101554.63;4895286;29;8919;-71
2021/05/10 17:05:09;;;;;;;;;2.50;2.50;;;;;17.79;27.19;101548.84;4895633;29;8857;-72
2021/05/10 17:08:06;;;;;;;;;3.00;3.00;;;;;18.02;27.46;101549.03;4899376;29;8881;-71
2021/05/10 17:11:02;;;;;;;;;2.75;2.75;;;;;17.82;27.21;101542.50;4894974;29;9591;-71
2021/05/10 17:13:41;;;;;;;;;2.50;2.50;;;;;17.94;27.76;101545.22;4895770;29;9231;-71
2021/05/10 17:16:09;;;;;;;;;2.00;2.00;;;;;17.71;27.83;101542.22;4911632;29;8945;-71
2021/05/10 17:18:37;;;;;;;;;4.75;4.75;;;;;17.57;27.68;101536.22;4902431;29;8961;-71
2021/05/10 17:21:18;;;;;;;;;2.50;2.50;;;;;17.73;27.57;101536.28;4899712;29;8907;-71
2021/05/10 17:24:16;;;;;;;;;2.25;2.25;;;;;17.50;27.69;101545.22;4900980;29;8865;-72
2021/05/10 17:26:43;;;;;;;;;3.50;2.75;;;;;17.49;28.29;101543.59;4900901;29;8873;-72
2021/05/10 17:29:40;;;;;;;;;4.00;4.00;;;;;17.59;28.25;101542.25;4880700;29;8843;-71
2021/05/10 17:32:16;;;;;;;;;3.00;3.00;;;;;17.38;28.25;101536.88;4881657;29;8959;-71
2021/05/10 17:35:12;;;;;;;;;4.00;4.00;;;;;17.35;28.71;101543.19;4885893;29;8876;-72
2021/05/10 17:37:40;;;;;;;;;6.50;6.50;;;;;17.29;28.71;101536.22;4904467;29;8893;-72
2021/05/10 17:40:36;;;;;;;;;6.33;6.00;;;;;17.34;28.76;101535.16;4899159;29;8984;-72
2021/05/10 17:43:31;;;;;;;;;5.33;5.33;;;;;17.32;29.08;101535.50;4886487;29;9012;-72
2021/05/10 17:46:14;;;;;;;;;6.67;6.67;;;;;17.22;28.89;101525.66;4900048;29;9040;-72